Asheville Regional Airport
KAVL : rendu visible

Aérodrome :











RETROUVEZ-NOUS SUR...

 
LOGIN :

S'inscrire | Disclaimer

   EN    FR    IT 

 









Légende :    VFR   VFR Marginal   IFR   IFR Intensif   IFR Très Intensif
Visi : 
Plafond : 
>= 8 km
>= 3000ft
5 à 8 km
1000 à 3000 ft
1500m à 5 km
500 à 1000 ft
800 à 1500m
200 à 500 ft
< 800m
< 200 ft
Symboles :   Orages  Brouillard  Fortes neiges  Fortes précipitations  Vent > 20 kt






- Altitude de l'aérodrome : 2165 ft
- Code IATA : AVL


KAVL - Asheville Regional

DERNIER METAR :
  • 231754Z 00000KT 10SM BKN100 12/M06 A3020 RMK AO2 SLP228 T01221056 10122 21033 58022 $

METARs EXPIRÉS :
  • 231654Z 00000KT 10SM SCT100 10/M04 A3024 RMK AO2 SLP241 T01001044 $
  • 231554Z 00000KT 10SM CLR 07/M03 A3025 RMK AO2 SLP249 T00671028 $

TAF KAVL
Valide du 23 à 18h jusqu'au 24 à 18h UTC


231729Z 2318/2418 20004KT P6SM SCT100 BKN200
FM240200 VRB02KT P6SM OVC100
FM240500 00000KT P6SM OVC050
PROB30 2407/2412 6SM RA BR OVC035
FM241200 VRB02KT P6SM -RA OVC045
FM241600 18005KT 6SM -RA BR OVC030
FM241700 18006KT 5SM -RA BR OVC024



MET'MAP, la Météo Aéronautique d'un coup d'oeil ! - Copyright ORBIFLY Décembre 2007 - Disclaimer

ORBIFLY MET'MAP TEAM :

Programmation & Développement : Alexandra Zaïnal
Sur une idée originale de : Baudouin d'Aumeries
Assistance à la programmation : Marc-Olivier Méhu
Soutien technique & logistique : Manuel Goepfert

Contact : metmap@orbifly.com




SOURCES & CREDITS :

   NOAA       Earth
Advisory